sensor_id;sensor_type;location;lat;lon;timestamp;pressure;altitude;pressure_sealevel;temperature;humidity
47670;BME280;33408;52.062;11.722;2024-01-30T00:00:16;102496.78;;;1.05;100.00
47670;BME280;33408;52.062;11.722;2024-01-30T00:02:43;102509.56;;;1.05;100.00
47670;BME280;33408;52.062;11.722;2024-01-30T00:05:11;102506.13;;;1.05;100.00
47670;BME280;33408;52.062;11.722;2024-01-30T00:07:39;102503.44;;;1.02;100.00
47670;BME280;33408;52.062;11.722;2024-01-30T00:10:05;102506.22;;;1.06;100.00
47670;BME280;33408;52.062;11.722;2024-01-30T00:12:32;102504.28;;;1.02;100.00
47670;BME280;33408;52.062;11.722;2024-01-30T00:14:59;102504.16;;;0.99;100.00
47670;BME280;33408;52.062;11.722;2024-01-30T00:17:26;102505.84;;;1.17;100.00
47670;BME280;33408;52.062;11.722;2024-01-30T00:19:52;102504.16;;;1.17;100.00
47670;BME280;33408;52.062;11.722;2024-01-30T00:22:19;102505.84;;;1.17;100.00
47670;BME280;33408;52.062;11.722;2024-01-30T00:24:47;102493.72;;;1.13;100.00
47670;BME280;33408;52.062;11.722;2024-01-30T00:27:13;102489.19;;;1.07;100.00
47670;BME280;33408;52.062;11.722;2024-01-30T00:29:40;102496.25;;;0.95;100.00
47670;BME280;33408;52.062;11.722;2024-01-30T00:32:07;102504.81;;;0.79;100.00
47670;BME280;33408;52.062;11.722;2024-01-30T00:34:33;102503.75;;;0.91;100.00
47670;BME280;33408;52.062;11.722;2024-01-30T00:37:00;102497.50;;;1.03;100.00
47670;BME280;33408;52.062;11.722;2024-01-30T00:39:26;102486.06;;;1.13;100.00
47670;BME280;33408;52.062;11.722;2024-01-30T00:41:54;102486.81;;;1.10;100.00
47670;BME280;33408;52.062;11.722;2024-01-30T00:44:21;102484.31;;;1.12;100.00
47670;BME280;33408;52.062;11.722;2024-01-30T00:46:48;102486.50;;;1.04;100.00
47670;BME280;33408;52.062;11.722;2024-01-30T00:49:14;102485.72;;;1.05;100.00
47670;BME280;33408;52.062;11.722;2024-01-30T00:51:41;102487.22;;;1.01;100.00
47670;BME280;33408;52.062;11.722;2024-01-30T00:54:08;102487.81;;;0.96;100.00
47670;BME280;33408;52.062;11.722;2024-01-30T00:56:34;102494.22;;;1.05;100.00
47670;BME280;33408;52.062;11.722;2024-01-30T00:59:02;102487.09;;;1.16;100.00
47670;BME280;33408;52.062;11.722;2024-01-30T01:01:29;102482.88;;;1.17;100.00
47670;BME280;33408;52.062;11.722;2024-01-30T01:03:55;102486.97;;;1.13;100.00
47670;BME280;33408;52.062;11.722;2024-01-30T01:06:23;102484.63;;;1.18;100.00
47670;BME280;33408;52.062;11.722;2024-01-30T01:08:50;102481.13;;;1.34;100.00
47670;BME280;33408;52.062;11.722;2024-01-30T01:11:16;102474.97;;;1.30;100.00
47670;BME280;33408;52.062;11.722;2024-01-30T01:13:43;102474.34;;;1.34;100.00
47670;BME280;33408;52.062;11.722;2024-01-30T01:16:11;102469.66;;;1.43;100.00
47670;BME280;33408;52.062;11.722;2024-01-30T01:18:37;102468.91;;;1.46;100.00
47670;BME280;33408;52.062;11.722;2024-01-30T01:21:04;102463.00;;;1.47;100.00
47670;BME280;33408;52.062;11.722;2024-01-30T01:23:31;102458.75;;;1.48;100.00
47670;BME280;33408;52.062;11.722;2024-01-30T01:25:57;102463.88;;;1.48;100.00
47670;BME280;33408;52.062;11.722;2024-01-30T01:28:25;102464.63;;;1.45;100.00
47670;BME280;33408;52.062;11.722;2024-01-30T01:30:52;102467.28;;;1.48;100.00
47670;BME280;33408;52.062;11.722;2024-01-30T01:33:20;102461.19;;;1.44;100.00
47670;BME280;33408;52.062;11.722;2024-01-30T01:35:46;102455.28;;;1.45;100.00
47670;BME280;33408;52.062;11.722;2024-01-30T01:38:13;102455.78;;;1.38;100.00
47670;BME280;33408;52.062;11.722;2024-01-30T01:40:40;102453.56;;;1.46;100.00
47670;BME280;33408;52.062;11.722;2024-01-30T01:43:06;102450.16;;;1.45;100.00
47670;BME280;33408;52.062;11.722;2024-01-30T01:45:33;102451.09;;;1.48;100.00
47670;BME280;33408;52.062;11.722;2024-01-30T01:47:59;102455.59;;;1.34;100.00
47670;BME280;33408;52.062;11.722;2024-01-30T01:50:27;102457.03;;;1.28;100.00
47670;BME280;33408;52.062;11.722;2024-01-30T01:52:54;102458.03;;;1.14;100.00
47670;BME280;33408;52.062;11.722;2024-01-30T01:55:22;102469.44;;;1.21;100.00
47670;BME280;33408;52.062;11.722;2024-01-30T01:57:50;102466.16;;;1.05;100.00
47670;BME280;33408;52.062;11.722;2024-01-30T02:00:17;102467.84;;;1.05;100.00
47670;BME280;33408;52.062;11.722;2024-01-30T02:02:45;102473.44;;;1.16;100.00
47670;BME280;33408;52.062;11.722;2024-01-30T02:05:12;102470.72;;;1.13;100.00
47670;BME280;33408;52.062;11.722;2024-01-30T02:07:40;102467.31;;;1.12;100.00
47670;BME280;33408;52.062;11.722;2024-01-30T02:10:08;102466.44;;;1.12;100.00
47670;BME280;33408;52.062;11.722;2024-01-30T02:12:34;102463.06;;;1.13;100.00
47670;BME280;33408;52.062;11.722;2024-01-30T02:15:01;102463.50;;;1.22;100.00
47670;BME280;33408;52.062;11.722;2024-01-30T02:17:27;102455.28;;;1.27;100.00
47670;BME280;33408;52.062;11.722;2024-01-30T02:19:54;102466.06;;;1.22;100.00
47670;BME280;33408;52.062;11.722;2024-01-30T02:22:22;102463.97;;;1.31;100.00
47670;BME280;33408;52.062;11.722;2024-01-30T02:24:49;102463.88;;;1.30;100.00
47670;BME280;33408;52.062;11.722;2024-01-30T02:27:16;102464.84;;;1.32;100.00
47670;BME280;33408;52.062;11.722;2024-01-30T02:29:43;102458.47;;;1.41;100.00
47670;BME280;33408;52.062;11.722;2024-01-30T02:32:09;102454.19;;;1.40;100.00
47670;BME280;33408;52.062;11.722;2024-01-30T02:34:36;102444.25;;;1.47;100.00
47670;BME280;33408;52.062;11.722;2024-01-30T02:37:03;102440.88;;;1.48;100.00
47670;BME280;33408;52.062;11.722;2024-01-30T02:39:31;102445.78;;;1.43;100.00
47670;BME280;33408;52.062;11.722;2024-01-30T02:41:57;102449.06;;;1.40;100.00
47670;BME280;33408;52.062;11.722;2024-01-30T02:44:24;102449.88;;;1.39;100.00
47670;BME280;33408;52.062;11.722;2024-01-30T02:46:50;102445.69;;;1.41;100.00
47670;BME280;33408;52.062;11.722;2024-01-30T02:49:19;102448.19;;;1.40;100.00
47670;BME280;33408;52.062;11.722;2024-01-30T02:51:46;102444.25;;;1.28;100.00
47670;BME280;33408;52.062;11.722;2024-01-30T02:54:12;102440.03;;;1.29;100.00
47670;BME280;33408;52.062;11.722;2024-01-30T02:56:40;102431.25;;;1.24;100.00
47670;BME280;33408;52.062;11.722;2024-01-30T02:59:07;102424.03;;;1.33;100.00
47670;BME280;33408;52.062;11.722;2024-01-30T03:01:33;102437.63;;;1.32;100.00
47670;BME280;33408;52.062;11.722;2024-01-30T03:04:08;102435.19;;;1.35;100.00
47670;BME280;33408;52.062;11.722;2024-01-30T03:06:34;102434.78;;;1.26;100.00
47670;BME280;33408;52.062;11.722;2024-01-30T03:09:01;102438.13;;;1.25;100.00
47670;BME280;33408;52.062;11.722;2024-01-30T03:11:30;102434.25;;;1.15;100.00
47670;BME280;33408;52.062;11.722;2024-01-30T03:13:58;102434.78;;;1.26;100.00
47670;BME280;33408;52.062;11.722;2024-01-30T03:16:24;102439.22;;;1.30;100.00
47670;BME280;33408;52.062;11.722;2024-01-30T03:18:51;102435.06;;;1.32;100.00
47670;BME280;33408;52.062;11.722;2024-01-30T03:21:17;102433.88;;;1.25;100.00
47670;BME280;33408;52.062;11.722;2024-01-30T03:23:44;102428.94;;;1.11;100.00
47670;BME280;33408;52.062;11.722;2024-01-30T03:26:11;102432.88;;;1.22;100.00
47670;BME280;33408;52.062;11.722;2024-01-30T03:28:37;102422.66;;;1.22;100.00
47670;BME280;33408;52.062;11.722;2024-01-30T03:31:06;102424.69;;;1.29;100.00
47670;BME280;33408;52.062;11.722;2024-01-30T03:33:33;102426.13;;;1.24;100.00
47670;BME280;33408;52.062;11.722;2024-01-30T03:36:03;102429.81;;;1.29;100.00
47670;BME280;33408;52.062;11.722;2024-01-30T03:38:29;102429.97;;;1.32;100.00
47670;BME280;33408;52.062;11.722;2024-01-30T03:40:58;102431.63;;;1.14;100.00
47670;BME280;33408;52.062;11.722;2024-01-30T03:43:24;102426.16;;;1.06;100.00
47670;BME280;33408;52.062;11.722;2024-01-30T03:45:51;102430.31;;;1.04;100.00
47670;BME280;33408;52.062;11.722;2024-01-30T03:48:20;102421.19;;;1.09;100.00
47670;BME280;33408;52.062;11.722;2024-01-30T03:50:47;102419.38;;;1.06;100.00
47670;BME280;33408;52.062;11.722;2024-01-30T03:53:14;102413.53;;;1.09;100.00
47670;BME280;33408;52.062;11.722;2024-01-30T03:55:40;102419.56;;;0.93;100.00
47670;BME280;33408;52.062;11.722;2024-01-30T03:58:07;102414.91;;;1.02;100.00
47670;BME280;33408;52.062;11.722;2024-01-30T04:00:33;102412.59;;;1.07;100.00
47670;BME280;33408;52.062;11.722;2024-01-30T04:03:00;102406.75;;;1.09;100.00
47670;BME280;33408;52.062;11.722;2024-01-30T04:05:28;102405.16;;;1.12;100.00
47670;BME280;33408;52.062;11.722;2024-01-30T04:07:55;102400.56;;;1.22;100.00
47670;BME280;33408;52.062;11.722;2024-01-30T04:10:22;102408.41;;;1.09;100.00
47670;BME280;33408;52.062;11.722;2024-01-30T04:12:48;102406.69;;;1.08;100.00
47670;BME280;33408;52.062;11.722;2024-01-30T04:15:15;102409.09;;;1.05;100.00
47670;BME280;33408;52.062;11.722;2024-01-30T04:17:42;102409.66;;;0.99;100.00
47670;BME280;33408;52.062;11.722;2024-01-30T04:20:13;102412.22;;;0.99;100.00
47670;BME280;33408;52.062;11.722;2024-01-30T04:22:41;102410.75;;;1.04;100.00
47670;BME280;33408;52.062;11.722;2024-01-30T04:25:08;102411.56;;;1.03;100.00
47670;BME280;33408;52.062;11.722;2024-01-30T04:27:34;102416.16;;;1.11;100.00
47670;BME280;33408;52.062;11.722;2024-01-30T04:30:01;102419.00;;;1.17;100.00
47670;BME280;33408;52.062;11.722;2024-01-30T04:32:28;102421.63;;;1.18;100.00
47670;BME280;33408;52.062;11.722;2024-01-30T04:34:54;102419.94;;;1.19;100.00
47670;BME280;33408;52.062;11.722;2024-01-30T04:37:21;102419.31;;;1.23;100.00
47670;BME280;33408;52.062;11.722;2024-01-30T04:39:49;102424.25;;;1.20;100.00
47670;BME280;33408;52.062;11.722;2024-01-30T04:42:16;102420.75;;;1.18;100.00
47670;BME280;33408;52.062;11.722;2024-01-30T04:44:42;102422.19;;;1.13;100.00
47670;BME280;33408;52.062;11.722;2024-01-30T04:47:09;102419.53;;;1.09;100.00
47670;BME280;33408;52.062;11.722;2024-01-30T04:49:38;102420.69;;;1.16;100.00
47670;BME280;33408;52.062;11.722;2024-01-30T04:52:05;102421.78;;;1.21;100.00
47670;BME280;33408;52.062;11.722;2024-01-30T04:54:31;102418.13;;;1.16;100.00
47670;BME280;33408;52.062;11.722;2024-01-30T04:56:59;102418.94;;;1.15;100.00
47670;BME280;33408;52.062;11.722;2024-01-30T04:59:26;102410.47;;;1.16;100.00
47670;BME280;33408;52.062;11.722;2024-01-30T05:01:53;102416.91;;;1.08;100.00
47670;BME280;33408;52.062;11.722;2024-01-30T05:04:19;102414.19;;;1.05;100.00
47670;BME280;33408;52.062;11.722;2024-01-30T05:06:47;102412.13;;;1.16;100.00
47670;BME280;33408;52.062;11.722;2024-01-30T05:09:13;102409.81;;;1.20;100.00
47670;BME280;33408;52.062;11.722;2024-01-30T05:11:40;102415.72;;;1.19;100.00
47670;BME280;33408;52.062;11.722;2024-01-30T05:14:08;102412.88;;;1.13;100.00
47670;BME280;33408;52.062;11.722;2024-01-30T05:16:36;102413.81;;;1.15;100.00
47670;BME280;33408;52.062;11.722;2024-01-30T05:19:03;102417.09;;;1.13;100.00
47670;BME280;33408;52.062;11.722;2024-01-30T05:21:30;102412.28;;;1.19;100.00
47670;BME280;33408;52.062;11.722;2024-01-30T05:23:56;102406.44;;;1.21;100.00
47670;BME280;33408;52.062;11.722;2024-01-30T05:26:23;102408.16;;;1.21;100.00
47670;BME280;33408;52.062;11.722;2024-01-30T05:28:50;102402.88;;;1.18;100.00
47670;BME280;33408;52.062;11.722;2024-01-30T05:31:23;102395.00;;;1.13;100.00
47670;BME280;33408;52.062;11.722;2024-01-30T05:33:52;102400.41;;;1.19;100.00
47670;BME280;33408;52.062;11.722;2024-01-30T05:36:19;102395.78;;;1.12;100.00
47670;BME280;33408;52.062;11.722;2024-01-30T05:38:47;102394.78;;;1.08;100.00
47670;BME280;33408;52.062;11.722;2024-01-30T05:41:13;102397.84;;;1.01;100.00
47670;BME280;33408;52.062;11.722;2024-01-30T05:43:40;102404.69;;;1.02;100.00
47670;BME280;33408;52.062;11.722;2024-01-30T05:46:06;102398.59;;;0.99;100.00
47670;BME280;33408;52.062;11.722;2024-01-30T05:48:35;102397.56;;;0.95;100.00
47670;BME280;33408;52.062;11.722;2024-01-30T05:51:02;102396.19;;;1.02;100.00
47670;BME280;33408;52.062;11.722;2024-01-30T05:53:29;102393.63;;;1.02;100.00
47670;BME280;33408;52.062;11.722;2024-01-30T05:55:56;102399.16;;;0.93;100.00
47670;BME280;33408;52.062;11.722;2024-01-30T05:58:22;102400.84;;;0.93;100.00
47670;BME280;33408;52.062;11.722;2024-01-30T06:00:49;102403.16;;;1.06;100.00
47670;BME280;33408;52.062;11.722;2024-01-30T06:03:15;102403.75;;;1.00;100.00
47670;BME280;33408;52.062;11.722;2024-01-30T06:05:43;102404.78;;;1.04;100.00
47670;BME280;33408;52.062;11.722;2024-01-30T06:08:10;102399.59;;;1.02;100.00
47670;BME280;33408;52.062;11.722;2024-01-30T06:10:36;102390.84;;;0.97;100.00
47670;BME280;33408;52.062;11.722;2024-01-30T06:13:03;102398.28;;;0.93;100.00
47670;BME280;33408;52.062;11.722;2024-01-30T06:15:30;102399.28;;;0.96;100.00
47670;BME280;33408;52.062;11.722;2024-01-30T06:17:57;102393.69;;;1.03;100.00
47670;BME280;33408;52.062;11.722;2024-01-30T06:20:24;102394.72;;;1.07;100.00
47670;BME280;33408;52.062;11.722;2024-01-30T06:22:52;102393.91;;;1.08;100.00
47670;BME280;33408;52.062;11.722;2024-01-30T06:25:19;102386.25;;;1.08;100.00
47670;BME280;33408;52.062;11.722;2024-01-30T06:27:45;102391.63;;;1.32;100.00
47670;BME280;33408;52.062;11.722;2024-01-30T06:30:12;102381.59;;;1.37;100.00
47670;BME280;33408;52.062;11.722;2024-01-30T06:32:39;102388.53;;;1.39;100.00
47670;BME280;33408;52.062;11.722;2024-01-30T06:35:06;102394.44;;;1.56;100.00
47670;BME280;33408;52.062;11.722;2024-01-30T06:37:33;102393.16;;;1.66;100.00
47670;BME280;33408;52.062;11.722;2024-01-30T06:40:01;102395.47;;;1.79;100.00
47670;BME280;33408;52.062;11.722;2024-01-30T06:42:29;102388.84;;;1.85;100.00
47670;BME280;33408;52.062;11.722;2024-01-30T06:44:56;102391.03;;;1.95;100.00
47670;BME280;33408;52.062;11.722;2024-01-30T06:47:23;102394.03;;;2.06;100.00
47670;BME280;33408;52.062;11.722;2024-01-30T06:49:49;102396.06;;;2.13;100.00
47670;BME280;33408;52.062;11.722;2024-01-30T06:52:16;102397.72;;;2.12;100.00
47670;BME280;33408;52.062;11.722;2024-01-30T06:54:43;102401.78;;;2.07;100.00
47670;BME280;33408;52.062;11.722;2024-01-30T06:57:10;102394.63;;;2.19;100.00
47670;BME280;33408;52.062;11.722;2024-01-30T06:59:39;102394.78;;;2.23;100.00
47670;BME280;33408;52.062;11.722;2024-01-30T07:02:08;102395.72;;;2.05;100.00
47670;BME280;33408;52.062;11.722;2024-01-30T07:04:35;102392.16;;;2.02;100.00
47670;BME280;33408;52.062;11.722;2024-01-30T07:07:03;102396.44;;;2.03;100.00
47670;BME280;33408;52.062;11.722;2024-01-30T07:09:30;102395.38;;;2.17;100.00
47670;BME280;33408;52.062;11.722;2024-01-30T07:11:57;102393.88;;;2.22;100.00
47670;BME280;33408;52.062;11.722;2024-01-30T07:14:25;102391.56;;;2.28;100.00
47670;BME280;33408;52.062;11.722;2024-01-30T07:16:52;102388.28;;;2.31;100.00
47670;BME280;33408;52.062;11.722;2024-01-30T07:19:18;102391.91;;;2.36;100.00
47670;BME280;33408;52.062;11.722;2024-01-30T07:21:45;102399.91;;;2.44;100.00
47670;BME280;33408;52.062;11.722;2024-01-30T07:24:12;102397.28;;;2.42;100.00
47670;BME280;33408;52.062;11.722;2024-01-30T07:26:38;102394.81;;;2.44;100.00
47670;BME280;33408;52.062;11.722;2024-01-30T07:29:05;102389.75;;;2.45;100.00
47670;BME280;33408;52.062;11.722;2024-01-30T07:31:33;102388.91;;;2.46;100.00
47670;BME280;33408;52.062;11.722;2024-01-30T07:33:59;102386.69;;;2.54;100.00
47670;BME280;33408;52.062;11.722;2024-01-30T07:36:26;102390.41;;;2.41;100.00
47670;BME280;33408;52.062;11.722;2024-01-30T07:38:52;102390.94;;;2.53;100.00
47670;BME280;33408;52.062;11.722;2024-01-30T07:41:20;102388.25;;;2.50;100.00
47670;BME280;33408;52.062;11.722;2024-01-30T07:43:46;102389.25;;;2.54;100.00
47670;BME280;33408;52.062;11.722;2024-01-30T07:46:13;102387.66;;;2.58;100.00
47670;BME280;33408;52.062;11.722;2024-01-30T07:48:41;102382.69;;;2.61;100.00
47670;BME280;33408;52.062;11.722;2024-01-30T07:51:07;102378.19;;;2.55;100.00
47670;BME280;33408;52.062;11.722;2024-01-30T07:53:34;102372.28;;;2.56;100.00
47670;BME280;33408;52.062;11.722;2024-01-30T07:56:01;102379.31;;;2.62;100.00
47670;BME280;33408;52.062;11.722;2024-01-30T07:58:27;102374.31;;;2.65;100.00
47670;BME280;33408;52.062;11.722;2024-01-30T08:00:54;102377.75;;;2.65;100.00
47670;BME280;33408;52.062;11.722;2024-01-30T08:03:23;102367.75;;;2.71;100.00
47670;BME280;33408;52.062;11.722;2024-01-30T08:05:51;102369.66;;;2.76;100.00
47670;BME280;33408;52.062;11.722;2024-01-30T08:08:18;102369.66;;;2.76;100.00
47670;BME280;33408;52.062;11.722;2024-01-30T08:10:44;102370.69;;;2.81;100.00
47670;BME280;33408;52.062;11.722;2024-01-30T08:13:11;102367.28;;;2.80;100.00
47670;BME280;33408;52.062;11.722;2024-01-30T08:15:38;102368.38;;;2.87;100.00
47670;BME280;33408;52.062;11.722;2024-01-30T08:18:05;102372.44;;;2.82;100.00
47670;BME280;33408;52.062;11.722;2024-01-30T08:20:32;102366.63;;;2.86;100.00
47670;BME280;33408;52.062;11.722;2024-01-30T08:23:00;102367.63;;;2.89;100.00
47670;BME280;33408;52.062;11.722;2024-01-30T08:25:27;102372.13;;;2.95;100.00
47670;BME280;33408;52.062;11.722;2024-01-30T08:27:53;102373.22;;;3.02;100.00
47670;BME280;33408;52.062;11.722;2024-01-30T08:30:20;102371.66;;;3.05;100.00
47670;BME280;33408;52.062;11.722;2024-01-30T08:32:46;102376.84;;;3.07;100.00
47670;BME280;33408;52.062;11.722;2024-01-30T08:35:13;102370.44;;;3.18;100.00
47670;BME280;33408;52.062;11.722;2024-01-30T08:37:41;102372.50;;;3.27;100.00
47670;BME280;33408;52.062;11.722;2024-01-30T08:40:10;102370.84;;;3.29;100.00
47670;BME280;33408;52.062;11.722;2024-01-30T08:42:36;102365.84;;;3.32;100.00
47670;BME280;33408;52.062;11.722;2024-01-30T08:45:04;102372.00;;;3.37;100.00
47670;BME280;33408;52.062;11.722;2024-01-30T08:47:30;102366.22;;;3.43;100.00
47670;BME280;33408;52.062;11.722;2024-01-30T08:49:58;102369.09;;;3.51;100.00
47670;BME280;33408;52.062;11.722;2024-01-30T08:52:24;102375.22;;;3.54;100.00
47670;BME280;33408;52.062;11.722;2024-01-30T08:54:50;102377.13;;;3.60;100.00
47670;BME280;33408;52.062;11.722;2024-01-30T08:57:18;102367.03;;;3.64;100.00
47670;BME280;33408;52.062;11.722;2024-01-30T08:59:45;102365.69;;;3.74;100.00
47670;BME280;33408;52.062;11.722;2024-01-30T09:02:12;102359.28;;;3.87;100.00
47670;BME280;33408;52.062;11.722;2024-01-30T09:04:41;102351.72;;;3.90;100.00
47670;BME280;33408;52.062;11.722;2024-01-30T09:07:09;102356.22;;;3.97;100.00
47670;BME280;33408;52.062;11.722;2024-01-30T09:09:37;102369.16;;;4.00;100.00
47670;BME280;33408;52.062;11.722;2024-01-30T09:12:05;102358.09;;;4.01;100.00
47670;BME280;33408;52.062;11.722;2024-01-30T09:14:35;102348.84;;;4.07;100.00
47670;BME280;33408;52.062;11.722;2024-01-30T09:17:03;102346.44;;;4.11;100.00
47670;BME280;33408;52.062;11.722;2024-01-30T09:19:30;102342.53;;;4.23;100.00
47670;BME280;33408;52.062;11.722;2024-01-30T09:21:56;102345.53;;;4.35;100.00
47670;BME280;33408;52.062;11.722;2024-01-30T09:24:23;102332.88;;;4.41;100.00
47670;BME280;33408;52.062;11.722;2024-01-30T09:26:50;102338.00;;;4.41;100.00
47670;BME280;33408;52.062;11.722;2024-01-30T09:29:16;102340.97;;;4.53;100.00
47670;BME280;33408;52.062;11.722;2024-01-30T09:31:45;102334.28;;;4.59;100.00
47670;BME280;33408;52.062;11.722;2024-01-30T09:34:11;102346.81;;;4.75;100.00
47670;BME280;33408;52.062;11.722;2024-01-30T09:36:38;102341.63;;;4.73;100.00
47670;BME280;33408;52.062;11.722;2024-01-30T09:39:04;102341.69;;;4.75;100.00
47670;BME280;33408;52.062;11.722;2024-01-30T09:41:32;102343.69;;;4.85;100.00
47670;BME280;33408;52.062;11.722;2024-01-30T09:44:01;102350.81;;;4.94;100.00
47670;BME280;33408;52.062;11.722;2024-01-30T09:46:30;102355.19;;;4.97;100.00
47670;BME280;33408;52.062;11.722;2024-01-30T09:49:00;102347.75;;;5.06;100.00
47670;BME280;33408;52.062;11.722;2024-01-30T09:51:29;102344.34;;;5.07;100.00
47670;BME280;33408;52.062;11.722;2024-01-30T09:53:56;102338.69;;;5.17;100.00
47670;BME280;33408;52.062;11.722;2024-01-30T09:56:23;102334.81;;;5.32;100.00
47670;BME280;33408;52.062;11.722;2024-01-30T09:58:49;102334.09;;;5.37;100.00
47670;BME280;33408;52.062;11.722;2024-01-30T10:01:17;102340.03;;;5.35;100.00
47670;BME280;33408;52.062;11.722;2024-01-30T10:03:44;102342.78;;;5.41;100.00
47670;BME280;33408;52.062;11.722;2024-01-30T10:06:12;102338.66;;;5.46;100.00
47670;BME280;33408;52.062;11.722;2024-01-30T10:08:42;102340.50;;;5.52;100.00
47670;BME280;33408;52.062;11.722;2024-01-30T10:11:09;102343.22;;;5.56;100.00
47670;BME280;33408;52.062;11.722;2024-01-30T10:13:35;102341.59;;;5.60;100.00
47670;BME280;33408;52.062;11.722;2024-01-30T10:16:02;102340.81;;;5.62;100.00
47670;BME280;33408;52.062;11.722;2024-01-30T10:18:31;102343.41;;;5.62;100.00
47670;BME280;33408;52.062;11.722;2024-01-30T10:20:58;102341.78;;;5.66;100.00
47670;BME280;33408;52.062;11.722;2024-01-30T10:23:26;102343.75;;;5.76;100.00
47670;BME280;33408;52.062;11.722;2024-01-30T10:25:53;102340.28;;;5.74;100.00
47670;BME280;33408;52.062;11.722;2024-01-30T10:28:20;102334.44;;;5.80;100.00
47670;BME280;33408;52.062;11.722;2024-01-30T10:30:57;102328.50;;;5.82;100.00
47670;BME280;33408;52.062;11.722;2024-01-30T10:33:24;102332.09;;;5.88;100.00
47670;BME280;33408;52.062;11.722;2024-01-30T10:35:51;102327.03;;;5.92;100.00
47670;BME280;33408;52.062;11.722;2024-01-30T10:38:19;102335.00;;;6.00;100.00
47670;BME280;33408;52.062;11.722;2024-01-30T10:40:48;102323.19;;;6.08;100.00
47670;BME280;33408;52.062;11.722;2024-01-30T10:43:21;102325.19;;;6.18;100.00
47670;BME280;33408;52.062;11.722;2024-01-30T10:45:49;102323.41;;;6.16;100.00
47670;BME280;33408;52.062;11.722;2024-01-30T10:48:21;102323.78;;;6.31;100.00
47670;BME280;33408;52.062;11.722;2024-01-30T10:50:53;102315.22;;;6.32;100.00
47670;BME280;33408;52.062;11.722;2024-01-30T10:53:24;102318.75;;;6.36;100.00
47670;BME280;33408;52.062;11.722;2024-01-30T10:55:54;102318.97;;;6.45;100.00
47670;BME280;33408;52.062;11.722;2024-01-30T10:58:21;102319.28;;;6.59;100.00
47670;BME280;33408;52.062;11.722;2024-01-30T11:00:49;102310.84;;;6.66;100.00
47670;BME280;33408;52.062;11.722;2024-01-30T11:03:17;102315.97;;;6.65;100.00
47670;BME280;33408;52.062;11.722;2024-01-30T11:05:49;102306.75;;;6.73;100.00
47670;BME280;33408;52.062;11.722;2024-01-30T11:08:22;102311.13;;;6.77;100.00
47670;BME280;33408;52.062;11.722;2024-01-30T11:10:54;102306.06;;;6.82;100.00
47670;BME280;33408;52.062;11.722;2024-01-30T11:13:22;102306.13;;;6.85;100.00
47670;BME280;33408;52.062;11.722;2024-01-30T11:15:48;102304.47;;;6.87;100.00
47670;BME280;33408;52.062;11.722;2024-01-30T11:18:23;102299.34;;;6.88;100.00
47670;BME280;33408;52.062;11.722;2024-01-30T11:20:49;102289.06;;;6.90;100.00
47670;BME280;33408;52.062;11.722;2024-01-30T11:23:16;102284.84;;;6.93;100.00
47670;BME280;33408;52.062;11.722;2024-01-30T11:25:43;102288.97;;;6.85;100.00
47670;BME280;33408;52.062;11.722;2024-01-30T11:28:13;102284.84;;;6.93;100.00
47670;BME280;33408;52.062;11.722;2024-01-30T11:30:41;102289.13;;;6.93;100.00
47670;BME280;33408;52.062;11.722;2024-01-30T11:33:09;102278.03;;;6.96;100.00
47670;BME280;33408;52.062;11.722;2024-01-30T11:35:37;102279.66;;;6.92;100.00
47670;BME280;33408;52.062;11.722;2024-01-30T11:38:06;102275.41;;;6.94;100.00
47670;BME280;33408;52.062;11.722;2024-01-30T11:40:34;102271.19;;;6.98;100.00
47670;BME280;33408;52.062;11.722;2024-01-30T11:43:02;102273.91;;;7.04;100.00
47670;BME280;33408;52.062;11.722;2024-01-30T11:45:29;102271.38;;;7.07;100.00
47670;BME280;33408;52.062;11.722;2024-01-30T11:47:58;102272.41;;;7.15;100.00
47670;BME280;33408;52.062;11.722;2024-01-30T11:50:26;102269.03;;;7.19;100.00
47670;BME280;33408;52.062;11.722;2024-01-30T11:52:54;102269.09;;;7.22;100.00
47670;BME280;33408;52.062;11.722;2024-01-30T11:55:21;102264.03;;;7.27;100.00
47670;BME280;33408;52.062;11.722;2024-01-30T11:57:47;102270.16;;;7.32;100.00
47670;BME280;33408;52.062;11.722;2024-01-30T12:00:15;102261.56;;;7.32;100.00
47670;BME280;33408;52.062;11.722;2024-01-30T12:02:43;102254.03;;;7.42;100.00
47670;BME280;33408;52.062;11.722;2024-01-30T12:05:11;102246.34;;;7.47;100.00
47670;BME280;33408;52.062;11.722;2024-01-30T12:07:38;102243.78;;;7.45;100.00
47670;BME280;33408;52.062;11.722;2024-01-30T12:10:05;102246.56;;;7.58;100.00
47670;BME280;33408;52.062;11.722;2024-01-30T12:12:33;102241.47;;;7.61;100.00
47670;BME280;33408;52.062;11.722;2024-01-30T12:15:00;102232.16;;;7.71;100.00
47670;BME280;33408;52.062;11.722;2024-01-30T12:17:28;102235.63;;;7.73;100.00
47670;BME280;33408;52.062;11.722;2024-01-30T12:20:03;102235.63;;;7.71;100.00
47670;BME280;33408;52.062;11.722;2024-01-30T12:22:33;102237.59;;;7.86;100.00
47670;BME280;33408;52.062;11.722;2024-01-30T12:25:02;102231.69;;;7.93;100.00
47670;BME280;33408;52.062;11.722;2024-01-30T12:27:29;102227.31;;;7.88;100.00
47670;BME280;33408;52.062;11.722;2024-01-30T12:29:56;102231.91;;;8.06;100.00
47670;BME280;33408;52.062;11.722;2024-01-30T12:32:23;102223.34;;;8.10;100.00
47670;BME280;33408;52.062;11.722;2024-01-30T12:34:49;102233.72;;;8.13;100.00
47670;BME280;33408;52.062;11.722;2024-01-30T12:37:16;102231.31;;;8.24;100.00
47670;BME280;33408;52.062;11.722;2024-01-30T12:39:48;102224.41;;;8.22;100.00